sensor_id;sensor_type;location;lat;lon;timestamp;temperature;humidity
51878;SHT31;37911;51.526;11.536;2023-06-14T00:02:51;15.46;58.91
51878;SHT31;37911;51.526;11.536;2023-06-14T00:05:58;15.41;59.04
51878;SHT31;37911;51.526;11.536;2023-06-14T00:09:02;15.16;60.19
51878;SHT31;37911;51.526;11.536;2023-06-14T00:12:06;15.22;60.20
51878;SHT31;37911;51.526;11.536;2023-06-14T00:15:09;15.02;60.85
51878;SHT31;37911;51.526;11.536;2023-06-14T00:18:13;14.89;60.96
51878;SHT31;37911;51.526;11.536;2023-06-14T00:21:19;14.85;60.98
51878;SHT31;37911;51.526;11.536;2023-06-14T00:24:22;14.87;60.81
51878;SHT31;37911;51.526;11.536;2023-06-14T00:27:26;14.83;60.89
51878;SHT31;37911;51.526;11.536;2023-06-14T00:30:29;14.65;61.23
51878;SHT31;37911;51.526;11.536;2023-06-14T00:33:32;14.55;61.77
51878;SHT31;37911;51.526;11.536;2023-06-14T00:36:38;14.61;61.41
51878;SHT31;37911;51.526;11.536;2023-06-14T00:39:41;14.55;61.63
51878;SHT31;37911;51.526;11.536;2023-06-14T00:42:44;14.35;62.25
51878;SHT31;37911;51.526;11.536;2023-06-14T00:45:48;14.48;61.97
51878;SHT31;37911;51.526;11.536;2023-06-14T00:48:52;14.39;62.06
51878;SHT31;37911;51.526;11.536;2023-06-14T00:51:58;14.42;61.75
51878;SHT31;37911;51.526;11.536;2023-06-14T00:55:03;14.39;62.04
51878;SHT31;37911;51.526;11.536;2023-06-14T00:58:07;14.38;62.05
51878;SHT31;37911;51.526;11.536;2023-06-14T01:01:10;14.31;62.95
51878;SHT31;37911;51.526;11.536;2023-06-14T01:04:14;14.39;62.48
51878;SHT31;37911;51.526;11.536;2023-06-14T01:07:25;14.44;62.02
51878;SHT31;37911;51.526;11.536;2023-06-14T01:10:36;14.42;62.22
51878;SHT31;37911;51.526;11.536;2023-06-14T01:13:43;14.31;62.36
51878;SHT31;37911;51.526;11.536;2023-06-14T01:16:47;14.29;62.22
51878;SHT31;37911;51.526;11.536;2023-06-14T01:19:55;14.11;62.95
51878;SHT31;37911;51.526;11.536;2023-06-14T01:23:01;14.11;62.86
51878;SHT31;37911;51.526;11.536;2023-06-14T01:26:05;13.91;63.79
51878;SHT31;37911;51.526;11.536;2023-06-14T01:29:08;13.78;64.37
51878;SHT31;37911;51.526;11.536;2023-06-14T01:32:11;13.71;64.81
51878;SHT31;37911;51.526;11.536;2023-06-14T01:35:15;13.82;64.34
51878;SHT31;37911;51.526;11.536;2023-06-14T01:38:23;13.75;64.90
51878;SHT31;37911;51.526;11.536;2023-06-14T01:41:28;13.70;65.01
51878;SHT31;37911;51.526;11.536;2023-06-14T01:44:32;13.69;65.20
51878;SHT31;37911;51.526;11.536;2023-06-14T01:47:36;13.71;64.66
51878;SHT31;37911;51.526;11.536;2023-06-14T01:50:39;13.75;64.79
51878;SHT31;37911;51.526;11.536;2023-06-14T01:53:45;13.70;65.28
51878;SHT31;37911;51.526;11.536;2023-06-14T01:56:49;13.69;65.32
51878;SHT31;37911;51.526;11.536;2023-06-14T01:59:52;13.67;65.66
51878;SHT31;37911;51.526;11.536;2023-06-14T02:02:55;13.61;65.99
51878;SHT31;37911;51.526;11.536;2023-06-14T02:06:00;13.60;66.00
51878;SHT31;37911;51.526;11.536;2023-06-14T02:09:06;13.42;66.51
51878;SHT31;37911;51.526;11.536;2023-06-14T02:12:09;13.63;66.23
51878;SHT31;37911;51.526;11.536;2023-06-14T02:15:13;13.44;66.66
51878;SHT31;37911;51.526;11.536;2023-06-14T02:18:18;13.50;66.53
51878;SHT31;37911;51.526;11.536;2023-06-14T02:21:22;13.54;66.49
51878;SHT31;37911;51.526;11.536;2023-06-14T02:24:27;13.59;66.56
51878;SHT31;37911;51.526;11.536;2023-06-14T02:27:31;13.47;66.86
51878;SHT31;37911;51.526;11.536;2023-06-14T02:30:37;13.51;67.07
51878;SHT31;37911;51.526;11.536;2023-06-14T02:33:41;13.69;66.10
51878;SHT31;37911;51.526;11.536;2023-06-14T02:36:44;13.73;66.11
51878;SHT31;37911;51.526;11.536;2023-06-14T02:39:50;13.71;66.31
51878;SHT31;37911;51.526;11.536;2023-06-14T02:42:54;13.67;66.42
51878;SHT31;37911;51.526;11.536;2023-06-14T02:45:57;13.69;66.47
51878;SHT31;37911;51.526;11.536;2023-06-14T02:49:00;13.81;66.23
51878;SHT31;37911;51.526;11.536;2023-06-14T02:52:06;13.71;66.48
51878;SHT31;37911;51.526;11.536;2023-06-14T02:55:13;13.73;66.39
51878;SHT31;37911;51.526;11.536;2023-06-14T02:58:16;13.54;66.85
51878;SHT31;37911;51.526;11.536;2023-06-14T03:01:20;13.66;66.73
51878;SHT31;37911;51.526;11.536;2023-06-14T03:04:24;13.63;66.55
51878;SHT31;37911;51.526;11.536;2023-06-14T03:07:29;13.74;66.22
51878;SHT31;37911;51.526;11.536;2023-06-14T03:10:37;13.60;66.53
51878;SHT31;37911;51.526;11.536;2023-06-14T03:13:40;13.50;66.94
51878;SHT31;37911;51.526;11.536;2023-06-14T03:16:45;13.56;66.91
51878;SHT31;37911;51.526;11.536;2023-06-14T03:19:51;13.54;67.00
51878;SHT31;37911;51.526;11.536;2023-06-14T03:22:55;13.60;66.64
51878;SHT31;37911;51.526;11.536;2023-06-14T03:26:02;13.53;66.75
51878;SHT31;37911;51.526;11.536;2023-06-14T03:29:06;13.43;67.00
51878;SHT31;37911;51.526;11.536;2023-06-14T03:32:10;13.43;67.34
51878;SHT31;37911;51.526;11.536;2023-06-14T03:35:18;13.47;67.21
51878;SHT31;37911;51.526;11.536;2023-06-14T03:38:23;13.47;67.24
51878;SHT31;37911;51.526;11.536;2023-06-14T03:41:29;13.43;67.39
51878;SHT31;37911;51.526;11.536;2023-06-14T03:44:32;13.39;67.57
51878;SHT31;37911;51.526;11.536;2023-06-14T03:47:35;13.33;68.23
51878;SHT31;37911;51.526;11.536;2023-06-14T03:50:39;13.36;68.21
51878;SHT31;37911;51.526;11.536;2023-06-14T03:53:43;13.26;68.63
51878;SHT31;37911;51.526;11.536;2023-06-14T03:56:50;13.43;67.64
51878;SHT31;37911;51.526;11.536;2023-06-14T03:59:53;13.35;68.67
51878;SHT31;37911;51.526;11.536;2023-06-14T04:02:58;13.47;68.34
51878;SHT31;37911;51.526;11.536;2023-06-14T04:06:01;13.44;68.31
51878;SHT31;37911;51.526;11.536;2023-06-14T04:09:07;13.56;68.19
51878;SHT31;37911;51.526;11.536;2023-06-14T04:12:13;13.75;67.71
51878;SHT31;37911;51.526;11.536;2023-06-14T04:15:16;13.75;67.80
51878;SHT31;37911;51.526;11.536;2023-06-14T04:18:19;13.78;67.91
51878;SHT31;37911;51.526;11.536;2023-06-14T04:21:24;13.75;67.85
51878;SHT31;37911;51.526;11.536;2023-06-14T04:24:30;14.11;67.18
51878;SHT31;37911;51.526;11.536;2023-06-14T04:27:40;14.18;67.22
51878;SHT31;37911;51.526;11.536;2023-06-14T04:30:45;14.20;67.06
51878;SHT31;37911;51.526;11.536;2023-06-14T04:33:50;14.21;67.04
51878;SHT31;37911;51.526;11.536;2023-06-14T04:36:55;14.21;67.14
51878;SHT31;37911;51.526;11.536;2023-06-14T04:40:11;14.29;66.96
51878;SHT31;37911;51.526;11.536;2023-06-14T04:43:18;14.36;66.66
51878;SHT31;37911;51.526;11.536;2023-06-14T04:46:31;14.45;66.51
51878;SHT31;37911;51.526;11.536;2023-06-14T04:49:50;14.41;67.32
51878;SHT31;37911;51.526;11.536;2023-06-14T04:52:55;14.31;67.34
51878;SHT31;37911;51.526;11.536;2023-06-14T04:56:00;14.38;67.70
51878;SHT31;37911;51.526;11.536;2023-06-14T04:59:08;14.51;67.14
51878;SHT31;37911;51.526;11.536;2023-06-14T05:02:12;14.65;67.13
51878;SHT31;37911;51.526;11.536;2023-06-14T05:05:17;14.72;67.01
51878;SHT31;37911;51.526;11.536;2023-06-14T05:08:20;14.90;66.55
51878;SHT31;37911;51.526;11.536;2023-06-14T05:11:27;14.90;66.17
51878;SHT31;37911;51.526;11.536;2023-06-14T05:14:33;15.02;66.15
51878;SHT31;37911;51.526;11.536;2023-06-14T05:17:40;15.07;65.90
51878;SHT31;37911;51.526;11.536;2023-06-14T05:20:43;15.19;65.61
51878;SHT31;37911;51.526;11.536;2023-06-14T05:23:51;15.23;65.73
51878;SHT31;37911;51.526;11.536;2023-06-14T05:26:54;15.17;65.30
51878;SHT31;37911;51.526;11.536;2023-06-14T05:30:00;15.26;65.10
51878;SHT31;37911;51.526;11.536;2023-06-14T05:33:09;15.37;64.65
51878;SHT31;37911;51.526;11.536;2023-06-14T05:36:13;15.43;64.82
51878;SHT31;37911;51.526;11.536;2023-06-14T05:39:16;15.71;63.93
51878;SHT31;37911;51.526;11.536;2023-06-14T05:42:19;15.77;63.22
51878;SHT31;37911;51.526;11.536;2023-06-14T05:45:25;16.06;62.82
51878;SHT31;37911;51.526;11.536;2023-06-14T05:48:29;16.22;62.03
51878;SHT31;37911;51.526;11.536;2023-06-14T05:51:33;16.42;61.89
51878;SHT31;37911;51.526;11.536;2023-06-14T05:54:36;16.62;61.31
51878;SHT31;37911;51.526;11.536;2023-06-14T05:57:40;16.75;60.50
51878;SHT31;37911;51.526;11.536;2023-06-14T06:00:46;17.21;59.43
51878;SHT31;37911;51.526;11.536;2023-06-14T06:03:49;17.51;58.80
51878;SHT31;37911;51.526;11.536;2023-06-14T06:06:52;17.71;58.68
51878;SHT31;37911;51.526;11.536;2023-06-14T06:09:56;18.05;57.85
51878;SHT31;37911;51.526;11.536;2023-06-14T06:12:59;18.14;57.43
51878;SHT31;37911;51.526;11.536;2023-06-14T06:16:08;18.59;56.19
51878;SHT31;37911;51.526;11.536;2023-06-14T06:19:11;18.64;56.03
51878;SHT31;37911;51.526;11.536;2023-06-14T06:22:15;18.68;55.60
51878;SHT31;37911;51.526;11.536;2023-06-14T06:25:18;18.96;55.09
51878;SHT31;37911;51.526;11.536;2023-06-14T06:28:22;19.19;54.52
51878;SHT31;37911;51.526;11.536;2023-06-14T06:31:28;19.36;53.75
51878;SHT31;37911;51.526;11.536;2023-06-14T06:34:31;19.66;53.58
51878;SHT31;37911;51.526;11.536;2023-06-14T06:37:36;19.66;53.36
51878;SHT31;37911;51.526;11.536;2023-06-14T06:40:39;19.58;53.68
51878;SHT31;37911;51.526;11.536;2023-06-14T06:43:42;19.94;53.18
51878;SHT31;37911;51.526;11.536;2023-06-14T06:46:48;19.75;53.28
51878;SHT31;37911;51.526;11.536;2023-06-14T06:49:51;20.48;52.63
51878;SHT31;37911;51.526;11.536;2023-06-14T06:52:55;20.47;52.28
51878;SHT31;37911;51.526;11.536;2023-06-14T06:55:58;20.88;51.11
51878;SHT31;37911;51.526;11.536;2023-06-14T06:59:01;21.19;49.76
51878;SHT31;37911;51.526;11.536;2023-06-14T07:02:07;20.81;50.34
51878;SHT31;37911;51.526;11.536;2023-06-14T07:05:11;21.32;49.02
51878;SHT31;37911;51.526;11.536;2023-06-14T07:08:16;21.80;48.47
51878;SHT31;37911;51.526;11.536;2023-06-14T07:11:21;21.83;47.11
51878;SHT31;37911;51.526;11.536;2023-06-14T07:14:26;21.93;47.69
51878;SHT31;37911;51.526;11.536;2023-06-14T07:17:33;22.36;46.87
51878;SHT31;37911;51.526;11.536;2023-06-14T07:20:37;22.01;47.35
51878;SHT31;37911;51.526;11.536;2023-06-14T07:23:41;22.51;45.76
51878;SHT31;37911;51.526;11.536;2023-06-14T07:26:47;21.94;45.42
51878;SHT31;37911;51.526;11.536;2023-06-14T07:29:51;22.24;45.53
51878;SHT31;37911;51.526;11.536;2023-06-14T07:32:57;22.61;44.77
51878;SHT31;37911;51.526;11.536;2023-06-14T07:36:00;22.61;44.41
51878;SHT31;37911;51.526;11.536;2023-06-14T07:39:04;22.78;43.88
51878;SHT31;37911;51.526;11.536;2023-06-14T07:42:11;22.54;44.11
51878;SHT31;37911;51.526;11.536;2023-06-14T07:45:16;23.08;43.61
51878;SHT31;37911;51.526;11.536;2023-06-14T07:48:22;23.06;43.01
51878;SHT31;37911;51.526;11.536;2023-06-14T07:51:25;23.28;42.52
51878;SHT31;37911;51.526;11.536;2023-06-14T07:54:30;23.55;41.50
51878;SHT31;37911;51.526;11.536;2023-06-14T07:57:35;23.29;41.15
51878;SHT31;37911;51.526;11.536;2023-06-14T08:00:38;23.16;41.40
51878;SHT31;37911;51.526;11.536;2023-06-14T08:03:44;23.70;40.99
51878;SHT31;37911;51.526;11.536;2023-06-14T08:06:47;24.25;39.82
51878;SHT31;37911;51.526;11.536;2023-06-14T08:09:51;24.17;39.79
51878;SHT31;37911;51.526;11.536;2023-06-14T08:12:54;24.60;38.88
51878;SHT31;37911;51.526;11.536;2023-06-14T08:15:58;24.64;38.72
51878;SHT31;37911;51.526;11.536;2023-06-14T08:19:06;24.84;38.27
51878;SHT31;37911;51.526;11.536;2023-06-14T08:22:09;23.94;39.48
51878;SHT31;37911;51.526;11.536;2023-06-14T08:25:12;23.97;39.84
51878;SHT31;37911;51.526;11.536;2023-06-14T08:28:16;24.10;39.29
51878;SHT31;37911;51.526;11.536;2023-06-14T08:31:19;24.35;39.27
51878;SHT31;37911;51.526;11.536;2023-06-14T08:34:30;24.20;39.33
51878;SHT31;37911;51.526;11.536;2023-06-14T08:37:38;24.71;37.87
51878;SHT31;37911;51.526;11.536;2023-06-14T08:40:45;24.32;38.68
51878;SHT31;37911;51.526;11.536;2023-06-14T08:43:56;24.32;38.50
51878;SHT31;37911;51.526;11.536;2023-06-14T08:47:01;24.24;38.57
51878;SHT31;37911;51.526;11.536;2023-06-14T08:50:09;23.56;39.10
51878;SHT31;37911;51.526;11.536;2023-06-14T08:53:14;24.35;38.15
51878;SHT31;37911;51.526;11.536;2023-06-14T08:56:21;25.22;34.64
51878;SHT31;37911;51.526;11.536;2023-06-14T08:59:32;25.30;34.88
51878;SHT31;37911;51.526;11.536;2023-06-14T09:02:41;25.73;34.62
51878;SHT31;37911;51.526;11.536;2023-06-14T09:05:49;26.44;34.19
51878;SHT31;37911;51.526;11.536;2023-06-14T09:08:55;26.76;33.34
51878;SHT31;37911;51.526;11.536;2023-06-14T09:11:58;27.22;32.64
51878;SHT31;37911;51.526;11.536;2023-06-14T09:15:05;26.85;32.49
51878;SHT31;37911;51.526;11.536;2023-06-14T09:18:09;26.83;32.44
51878;SHT31;37911;51.526;11.536;2023-06-14T09:21:17;26.83;32.68
51878;SHT31;37911;51.526;11.536;2023-06-14T09:24:24;26.72;32.74
51878;SHT31;37911;51.526;11.536;2023-06-14T09:27:29;26.38;33.52
51878;SHT31;37911;51.526;11.536;2023-06-14T09:30:32;26.51;33.15
51878;SHT31;37911;51.526;11.536;2023-06-14T09:33:37;26.21;32.74
51878;SHT31;37911;51.526;11.536;2023-06-14T09:36:43;26.32;33.44
51878;SHT31;37911;51.526;11.536;2023-06-14T09:39:49;26.48;32.50
51878;SHT31;37911;51.526;11.536;2023-06-14T09:42:53;26.79;31.78
51878;SHT31;37911;51.526;11.536;2023-06-14T09:46:00;26.91;31.86
51878;SHT31;37911;51.526;11.536;2023-06-14T09:49:05;26.86;32.03
51878;SHT31;37911;51.526;11.536;2023-06-14T09:52:14;27.05;32.18
51878;SHT31;37911;51.526;11.536;2023-06-14T09:55:20;27.19;31.76
51878;SHT31;37911;51.526;11.536;2023-06-14T09:58:26;26.59;32.34
51878;SHT31;37911;51.526;11.536;2023-06-14T10:01:31;26.72;32.06
51878;SHT31;37911;51.526;11.536;2023-06-14T10:04:36;26.42;33.04
51878;SHT31;37911;51.526;11.536;2023-06-14T10:07:48;25.88;33.76
51878;SHT31;37911;51.526;11.536;2023-06-14T10:10:53;25.65;34.52
51878;SHT31;37911;51.526;11.536;2023-06-14T10:13:58;26.27;34.22
51878;SHT31;37911;51.526;11.536;2023-06-14T10:17:06;26.28;33.33
51878;SHT31;37911;51.526;11.536;2023-06-14T10:20:21;25.20;34.64
51878;SHT31;37911;51.526;11.536;2023-06-14T10:23:36;25.94;33.02
51878;SHT31;37911;51.526;11.536;2023-06-14T10:26:50;26.04;32.96
51878;SHT31;37911;51.526;11.536;2023-06-14T10:30:03;26.44;32.63
51878;SHT31;37911;51.526;11.536;2023-06-14T10:33:07;26.30;33.43
51878;SHT31;37911;51.526;11.536;2023-06-14T10:36:26;26.10;32.24
51878;SHT31;37911;51.526;11.536;2023-06-14T10:39:38;26.38;32.62
51878;SHT31;37911;51.526;11.536;2023-06-14T10:42:51;26.75;31.70
51878;SHT31;37911;51.526;11.536;2023-06-14T10:46:16;25.84;32.93
51878;SHT31;37911;51.526;11.536;2023-06-14T10:49:37;26.00;33.22
51878;SHT31;37911;51.526;11.536;2023-06-14T10:52:45;26.53;33.00
51878;SHT31;37911;51.526;11.536;2023-06-14T10:55:52;26.79;32.56
51878;SHT31;37911;51.526;11.536;2023-06-14T10:58:56;27.17;32.11
51878;SHT31;37911;51.526;11.536;2023-06-14T11:02:33;27.49;31.87
51878;SHT31;37911;51.526;11.536;2023-06-14T11:05:43;26.37;33.36
51878;SHT31;37911;51.526;11.536;2023-06-14T11:09:25;26.99;33.29
51878;SHT31;37911;51.526;11.536;2023-06-14T11:12:38;27.12;32.96
51878;SHT31;37911;51.526;11.536;2023-06-14T11:15:44;26.18;34.42
51878;SHT31;37911;51.526;11.536;2023-06-14T11:18:49;25.86;35.48
51878;SHT31;37911;51.526;11.536;2023-06-14T11:21:52;25.43;36.36
51878;SHT31;37911;51.526;11.536;2023-06-14T11:24:55;25.29;36.92
51878;SHT31;37911;51.526;11.536;2023-06-14T11:28:07;24.96;37.30
51878;SHT31;37911;51.526;11.536;2023-06-14T11:31:10;24.92;37.33
51878;SHT31;37911;51.526;11.536;2023-06-14T11:34:17;24.31;38.53
51878;SHT31;37911;51.526;11.536;2023-06-14T11:37:28;24.20;38.97
51878;SHT31;37911;51.526;11.536;2023-06-14T15:14:09;23.36;42.79
51878;SHT31;37911;51.526;11.536;2023-06-14T15:17:12;23.55;42.16
51878;SHT31;37911;51.526;11.536;2023-06-14T15:20:16;23.47;42.16
51878;SHT31;37911;51.526;11.536;2023-06-14T15:23:19;23.53;42.34
51878;SHT31;37911;51.526;11.536;2023-06-14T15:26:24;23.55;42.04
51878;SHT31;37911;51.526;11.536;2023-06-14T15:29:32;23.33;43.00
51878;SHT31;37911;51.526;11.536;2023-06-14T15:32:35;23.08;43.17
51878;SHT31;37911;51.526;11.536;2023-06-14T15:35:38;23.01;43.65
51878;SHT31;37911;51.526;11.536;2023-06-14T15:38:42;23.01;43.22
51878;SHT31;37911;51.526;11.536;2023-06-14T15:41:47;23.05;43.75
51878;SHT31;37911;51.526;11.536;2023-06-14T15:44:54;23.04;43.08
51878;SHT31;37911;51.526;11.536;2023-06-14T15:47:57;23.11;42.89
51878;SHT31;37911;51.526;11.536;2023-06-14T15:51:01;23.22;42.33
51878;SHT31;37911;51.526;11.536;2023-06-14T15:54:07;23.45;42.46
51878;SHT31;37911;51.526;11.536;2023-06-14T15:57:10;23.63;41.90
51878;SHT31;37911;51.526;11.536;2023-06-14T16:00:17;23.66;42.43
51878;SHT31;37911;51.526;11.536;2023-06-14T16:03:21;23.66;42.64
51878;SHT31;37911;51.526;11.536;2023-06-14T16:06:24;23.60;41.52
51878;SHT31;37911;51.526;11.536;2023-06-14T16:09:28;23.73;41.73
51878;SHT31;37911;51.526;11.536;2023-06-14T16:12:33;23.93;42.01
51878;SHT31;37911;51.526;11.536;2023-06-14T16:15:39;24.17;42.12
51878;SHT31;37911;51.526;11.536;2023-06-14T16:18:42;24.18;41.35
51878;SHT31;37911;51.526;11.536;2023-06-14T16:21:49;24.27;40.53
51878;SHT31;37911;51.526;11.536;2023-06-14T16:24:54;24.14;41.28
51878;SHT31;37911;51.526;11.536;2023-06-14T16:27:57;24.27;41.09
51878;SHT31;37911;51.526;11.536;2023-06-14T16:31:03;24.38;41.08
51878;SHT31;37911;51.526;11.536;2023-06-14T16:34:06;24.47;40.42
51878;SHT31;37911;51.526;11.536;2023-06-14T16:37:11;24.48;41.07
51878;SHT31;37911;51.526;11.536;2023-06-14T16:40:15;24.64;40.31
51878;SHT31;37911;51.526;11.536;2023-06-14T16:43:18;24.81;40.94
51878;SHT31;37911;51.526;11.536;2023-06-14T16:46:33;24.37;40.28
51878;SHT31;37911;51.526;11.536;2023-06-14T16:49:36;24.34;40.10
51878;SHT31;37911;51.526;11.536;2023-06-14T16:52:40;24.16;40.09
51878;SHT31;37911;51.526;11.536;2023-06-14T16:55:43;23.99;40.49
51878;SHT31;37911;51.526;11.536;2023-06-14T16:58:46;23.55;41.76
51878;SHT31;37911;51.526;11.536;2023-06-14T17:01:52;23.39;43.09
51878;SHT31;37911;51.526;11.536;2023-06-14T17:04:56;23.45;42.78
51878;SHT31;37911;51.526;11.536;2023-06-14T17:08:01;23.33;43.51
51878;SHT31;37911;51.526;11.536;2023-06-14T17:11:04;23.15;42.91
51878;SHT31;37911;51.526;11.536;2023-06-14T17:14:08;23.11;42.84
51878;SHT31;37911;51.526;11.536;2023-06-14T17:17:15;23.20;43.04
51878;SHT31;37911;51.526;11.536;2023-06-14T17:20:19;23.19;43.13
51878;SHT31;37911;51.526;11.536;2023-06-14T17:23:24;23.22;42.91
51878;SHT31;37911;51.526;11.536;2023-06-14T17:26:27;23.08;43.36
51878;SHT31;37911;51.526;11.536;2023-06-14T17:29:32;22.96;43.60
51878;SHT31;37911;51.526;11.536;2023-06-14T17:32:38;22.92;43.28
51878;SHT31;37911;51.526;11.536;2023-06-14T17:35:41;22.83;43.62
51878;SHT31;37911;51.526;11.536;2023-06-14T17:38:45;22.83;43.86
51878;SHT31;37911;51.526;11.536;2023-06-14T17:41:48;22.72;44.19
51878;SHT31;37911;51.526;11.536;2023-06-14T17:44:51;22.83;43.58
51878;SHT31;37911;51.526;11.536;2023-06-14T17:47:59;22.67;43.71
51878;SHT31;37911;51.526;11.536;2023-06-14T17:51:03;22.55;43.68
51878;SHT31;37911;51.526;11.536;2023-06-14T17:54:07;22.45;43.91
51878;SHT31;37911;51.526;11.536;2023-06-14T17:57:11;22.47;44.91
51878;SHT31;37911;51.526;11.536;2023-06-14T18:00:16;22.55;44.31
51878;SHT31;37911;51.526;11.536;2023-06-14T18:03:23;22.58;44.25
51878;SHT31;37911;51.526;11.536;2023-06-14T18:06:27;22.45;43.87
51878;SHT31;37911;51.526;11.536;2023-06-14T18:09:32;22.41;44.34
51878;SHT31;37911;51.526;11.536;2023-06-14T18:12:37;22.25;47.13
51878;SHT31;37911;51.526;11.536;2023-06-14T18:15:41;22.11;45.61
51878;SHT31;37911;51.526;11.536;2023-06-14T18:18:47;22.09;46.43
51878;SHT31;37911;51.526;11.536;2023-06-14T18:21:55;22.10;46.09
51878;SHT31;37911;51.526;11.536;2023-06-14T18:24:58;22.03;46.19
51878;SHT31;37911;51.526;11.536;2023-06-14T18:28:04;21.99;47.42
51878;SHT31;37911;51.526;11.536;2023-06-14T18:31:07;21.99;47.09
51878;SHT31;37911;51.526;11.536;2023-06-14T18:34:13;21.94;46.99
51878;SHT31;37911;51.526;11.536;2023-06-14T18:37:16;21.89;47.31
51878;SHT31;37911;51.526;11.536;2023-06-14T18:40:20;21.85;47.23
51878;SHT31;37911;51.526;11.536;2023-06-14T18:43:23;21.83;47.52
51878;SHT31;37911;51.526;11.536;2023-06-14T18:46:26;21.85;50.42
51878;SHT31;37911;51.526;11.536;2023-06-14T18:49:33;21.82;50.84
51878;SHT31;37911;51.526;11.536;2023-06-14T18:52:37;21.90;50.62
51878;SHT31;37911;51.526;11.536;2023-06-14T18:55:40;21.88;49.83
51878;SHT31;37911;51.526;11.536;2023-06-14T18:58:45;21.72;50.07
51878;SHT31;37911;51.526;11.536;2023-06-14T19:01:49;21.63;50.92
51878;SHT31;37911;51.526;11.536;2023-06-14T19:04:55;21.53;50.55
51878;SHT31;37911;51.526;11.536;2023-06-14T19:07:59;21.45;53.03
51878;SHT31;37911;51.526;11.536;2023-06-14T19:11:02;21.41;52.86
51878;SHT31;37911;51.526;11.536;2023-06-14T19:14:06;21.29;53.23
51878;SHT31;37911;51.526;11.536;2023-06-14T19:17:09;21.19;53.83
51878;SHT31;37911;51.526;11.536;2023-06-14T19:20:15;21.11;53.64
51878;SHT31;37911;51.526;11.536;2023-06-14T19:23:18;21.01;53.81
51878;SHT31;37911;51.526;11.536;2023-06-14T19:26:23;21.02;53.41
51878;SHT31;37911;51.526;11.536;2023-06-14T19:29:28;20.97;53.79
51878;SHT31;37911;51.526;11.536;2023-06-14T19:32:33;20.92;53.89
51878;SHT31;37911;51.526;11.536;2023-06-14T19:35:39;20.92;53.51
51878;SHT31;37911;51.526;11.536;2023-06-14T19:38:42;20.87;54.00
51878;SHT31;37911;51.526;11.536;2023-06-14T19:41:46;20.70;55.52
51878;SHT31;37911;51.526;11.536;2023-06-14T19:44:49;20.57;56.55
51878;SHT31;37911;51.526;11.536;2023-06-14T19:47:53;20.57;56.07
51878;SHT31;37911;51.526;11.536;2023-06-14T19:50:59;20.45;56.36
51878;SHT31;37911;51.526;11.536;2023-06-14T19:54:03;20.40;56.28
51878;SHT31;37911;51.526;11.536;2023-06-14T19:57:09;20.30;55.63
51878;SHT31;37911;51.526;11.536;2023-06-14T20:00:13;20.34;54.97
51878;SHT31;37911;51.526;11.536;2023-06-14T20:03:17;20.24;55.99
51878;SHT31;37911;51.526;11.536;2023-06-14T20:06:22;20.22;56.11
51878;SHT31;37911;51.526;11.536;2023-06-14T20:09:27;20.23;55.29
51878;SHT31;37911;51.526;11.536;2023-06-14T20:12:32;20.16;55.89
51878;SHT31;37911;51.526;11.536;2023-06-14T20:15:35;20.12;56.01
51878;SHT31;37911;51.526;11.536;2023-06-14T20:18:38;20.09;56.07
51878;SHT31;37911;51.526;11.536;2023-06-14T20:21:44;20.02;56.26
51878;SHT31;37911;51.526;11.536;2023-06-14T20:24:49;20.00;56.15
51878;SHT31;37911;51.526;11.536;2023-06-14T20:27:52;19.99;56.02
51878;SHT31;37911;51.526;11.536;2023-06-14T20:30:56;19.97;56.91
51878;SHT31;37911;51.526;11.536;2023-06-14T20:34:00;19.90;56.72
51878;SHT31;37911;51.526;11.536;2023-06-14T20:37:07;19.78;57.11
51878;SHT31;37911;51.526;11.536;2023-06-14T20:40:19;19.76;56.84
51878;SHT31;37911;51.526;11.536;2023-06-14T20:43:23;19.72;57.17
51878;SHT31;37911;51.526;11.536;2023-06-14T20:46:27;19.65;58.26
51878;SHT31;37911;51.526;11.536;2023-06-14T20:49:32;19.62;57.86
51878;SHT31;37911;51.526;11.536;2023-06-14T20:52:38;19.61;56.71
51878;SHT31;37911;51.526;11.536;2023-06-14T20:55:42;19.55;56.28
51878;SHT31;37911;51.526;11.536;2023-06-14T20:58:46;19.52;56.78
51878;SHT31;37911;51.526;11.536;2023-06-14T21:01:50;19.45;54.99
51878;SHT31;37911;51.526;11.536;2023-06-14T21:04:53;19.47;55.49
51878;SHT31;37911;51.526;11.536;2023-06-14T21:07:59;19.32;56.35
51878;SHT31;37911;51.526;11.536;2023-06-14T21:11:06;19.29;55.93
51878;SHT31;37911;51.526;11.536;2023-06-14T21:14:12;19.25;55.25
51878;SHT31;37911;51.526;11.536;2023-06-14T21:17:15;19.15;55.60
51878;SHT31;37911;51.526;11.536;2023-06-14T21:20:19;19.04;55.90
51878;SHT31;37911;51.526;11.536;2023-06-14T21:23:25;18.96;56.01
51878;SHT31;37911;51.526;11.536;2023-06-14T21:26:28;18.87;56.21
51878;SHT31;37911;51.526;11.536;2023-06-14T21:29:32;18.73;56.44
51878;SHT31;37911;51.526;11.536;2023-06-14T21:32:35;18.63;56.60
51878;SHT31;37911;51.526;11.536;2023-06-14T21:35:39;18.50;56.26
51878;SHT31;37911;51.526;11.536;2023-06-14T21:38:45;18.37;56.62
51878;SHT31;37911;51.526;11.536;2023-06-14T21:41:50;18.32;56.79
51878;SHT31;37911;51.526;11.536;2023-06-14T21:44:54;18.26;56.75
51878;SHT31;37911;51.526;11.536;2023-06-14T21:47:58;18.25;56.25
51878;SHT31;37911;51.526;11.536;2023-06-14T21:51:02;18.13;56.67
51878;SHT31;37911;51.526;11.536;2023-06-14T21:54:08;18.13;56.97
51878;SHT31;37911;51.526;11.536;2023-06-14T21:57:12;18.13;56.74
51878;SHT31;37911;51.526;11.536;2023-06-14T22:00:18;18.09;56.77
51878;SHT31;37911;51.526;11.536;2023-06-14T22:03:22;18.08;57.39
51878;SHT31;37911;51.526;11.536;2023-06-14T22:06:25;18.06;57.39
51878;SHT31;37911;51.526;11.536;2023-06-14T22:09:31;18.01;57.57
51878;SHT31;37911;51.526;11.536;2023-06-14T22:12:35;17.88;58.91
51878;SHT31;37911;51.526;11.536;2023-06-14T22:15:41;17.85;59.65
51878;SHT31;37911;51.526;11.536;2023-06-14T22:18:45;17.74;60.32
51878;SHT31;37911;51.526;11.536;2023-06-14T22:21:48;17.60;60.83
51878;SHT31;37911;51.526;11.536;2023-06-14T22:24:54;17.42;62.25
51878;SHT31;37911;51.526;11.536;2023-06-14T22:27:58;17.28;62.38
51878;SHT31;37911;51.526;11.536;2023-06-14T22:31:02;17.10;63.50
51878;SHT31;37911;51.526;11.536;2023-06-14T22:34:08;17.08;63.53
51878;SHT31;37911;51.526;11.536;2023-06-14T22:37:11;17.08;63.50
51878;SHT31;37911;51.526;11.536;2023-06-14T22:40:22;16.97;63.93
51878;SHT31;37911;51.526;11.536;2023-06-14T22:43:26;16.80;64.19
51878;SHT31;37911;51.526;11.536;2023-06-14T22:46:29;16.79;63.87